createdAt,value
2017-12-11T01:48:56.895Z,5.47
2017-12-11T01:54:33.203Z,5.47
2017-12-11T02:00:15.076Z,5.65
2017-12-11T02:04:12.411Z,6.03
2017-12-11T09:18:25.830Z,10.80
2017-12-11T09:20:54.100Z,10.38
2017-12-11T09:23:24.412Z,10.73
2017-12-11T09:25:52.746Z,8.98
2017-12-11T09:28:21.173Z,11.40
2017-12-11T09:30:50.898Z,9.10
2017-12-11T09:33:19.892Z,11.20
2017-12-11T09:35:49.792Z,6.15
2017-12-11T09:38:21.263Z,10.85
2017-12-11T09:40:53.115Z,8.20
2017-12-11T09:43:22.814Z,10.60
2017-12-11T09:45:52.271Z,9.75
2017-12-11T09:48:22.381Z,8.70
2017-12-11T09:50:56.209Z,10.25
2017-12-11T09:53:25.469Z,10.30
2017-12-11T09:55:54.129Z,9.10
2017-12-11T10:01:21.178Z,11.27
2017-12-11T10:03:50.172Z,6.35
2017-12-11T10:06:24.297Z,11.45
2017-12-11T10:08:53.285Z,12.93
2017-12-11T10:11:22.101Z,8.50
2017-12-11T10:13:52.336Z,12.98
2017-12-11T10:16:22.013Z,8.15
2017-12-11T10:18:51.737Z,11.82
2017-12-11T10:21:20.396Z,11.82
2017-12-11T10:23:48.863Z,8.93
2017-12-11T10:26:18.740Z,14.27
2017-12-11T10:28:52.732Z,12.88
2017-12-11T10:31:21.753Z,13.65
2017-12-11T10:33:54.177Z,10.25
2017-12-11T10:36:27.775Z,12.95
2017-12-11T10:38:55.758Z,13.13
2017-12-11T10:41:24.071Z,11.88
2017-12-11T10:44:01.815Z,11.55
2017-12-11T10:46:41.918Z,15.70
2017-12-11T10:51:51.470Z,8.48
2017-12-11T10:54:21.800Z,13.20
2017-12-11T10:56:52.977Z,13.62
2017-12-11T10:59:25.283Z,15.05
2017-12-11T11:02:01.759Z,14.43
2017-12-11T11:08:05.333Z,10.88
2017-12-11T11:10:54.569Z,14.30
2017-12-11T11:13:26.377Z,16.67
2017-12-11T11:15:56.803Z,13.98
2017-12-11T11:18:25.482Z,13.23
2017-12-11T11:20:54.411Z,14.27
2017-12-11T11:23:24.491Z,13.30
2017-12-11T11:25:56.190Z,5.57
2017-12-11T11:31:02.499Z,8.13
2017-12-11T11:33:31.172Z,9.50
2017-12-11T11:36:02.667Z,14.27
2017-12-11T11:38:32.370Z,11.20
2017-12-11T11:43:57.020Z,8.57
2017-12-11T11:49:22.676Z,9.10
2017-12-11T11:51:59.203Z,11.05
2017-12-11T11:57:34.968Z,11.68
2017-12-11T12:00:05.345Z,8.52
2017-12-11T12:08:25.192Z,8.13
2017-12-11T12:10:56.356Z,8.82
2017-12-11T12:13:31.915Z,12.20
2017-12-11T12:16:00.856Z,9.90
2017-12-11T12:18:30.251Z,11.52
2017-12-11T12:20:59.398Z,10.50
2017-12-11T12:23:29.665Z,11.00
2017-12-11T12:25:58.910Z,11.57
2017-12-11T12:31:19.700Z,7.90
2017-12-11T12:33:50.162Z,8.75
2017-12-11T12:36:22.357Z,8.75
2017-12-11T12:39:02.814Z,11.90
2017-12-11T12:41:34.298Z,10.50
2017-12-11T12:47:27.543Z,10.65
2017-12-11T12:52:32.246Z,11.18
2017-12-11T12:55:05.600Z,9.10
2017-12-11T12:57:40.578Z,8.98
2017-12-11T13:00:17.249Z,8.45
2017-12-11T13:08:29.322Z,9.27
2017-12-11T13:11:04.923Z,9.63
2017-12-11T13:13:40.014Z,9.50
2017-12-11T13:16:19.445Z,10.25
2017-12-11T13:30:58.288Z,10.38
2017-12-11T13:33:44.512Z,7.87
2017-12-11T13:36:14.201Z,9.98
2017-12-11T13:38:46.779Z,10.40
2017-12-11T13:41:16.314Z,9.80
2017-12-11T13:46:35.333Z,8.10
2017-12-11T13:49:09.256Z,9.75
2017-12-11T13:51:45.352Z,10.77
2017-12-11T13:54:19.266Z,5.65
2017-12-11T13:56:53.210Z,10.48
2017-12-11T13:59:24.678Z,11.02
2017-12-11T14:01:55.023Z,10.43
2017-12-11T14:04:25.544Z,9.70
2017-12-11T14:06:56.196Z,11.12
2017-12-11T14:09:32.856Z,8.48
2017-12-11T14:12:12.462Z,9.73
2017-12-11T14:14:46.409Z,8.90
2017-12-11T14:17:17.898Z,10.45
2017-12-11T14:19:52.361Z,11.93
2017-12-11T14:22:24.852Z,12.48
2017-12-11T14:24:56.856Z,12.18
2017-12-11T14:30:01.832Z,11.00
2017-12-11T14:32:41.289Z,13.07
2017-12-11T14:35:11.089Z,12.55
2017-12-11T14:37:45.933Z,12.90
2017-12-11T14:40:21.158Z,11.90
2017-12-11T14:42:49.262Z,12.55
2017-12-11T14:45:18.518Z,11.68
2017-12-11T14:47:47.594Z,12.18
2017-12-11T14:50:15.471Z,13.55
2017-12-11T14:52:46.783Z,13.90
2017-12-11T14:55:14.986Z,11.45
2017-12-11T14:57:48.617Z,10.30
2017-12-11T15:00:18.319Z,12.77
2017-12-11T15:02:46.436Z,15.20
2017-12-11T15:05:22.721Z,11.77
2017-12-11T15:07:57.682Z,12.55
2017-12-11T15:10:30.838Z,13.15
2017-12-11T15:13:17.617Z,13.05
2017-12-11T15:16:07.112Z,12.75
2017-12-11T15:18:35.534Z,13.32
2017-12-11T15:21:06.720Z,11.85
2017-12-11T15:23:36.924Z,13.20
2017-12-11T15:26:06.581Z,12.80
2017-12-11T15:28:36.842Z,12.90
2017-12-11T15:31:07.690Z,12.48
2017-12-11T15:36:17.179Z,14.68
2017-12-11T15:38:51.877Z,12.70
2017-12-11T15:41:38.062Z,14.93
2017-12-11T15:44:08.559Z,15.10
2017-12-11T15:46:37.165Z,15.93
2017-12-11T15:49:06.604Z,17.20
2017-12-11T15:54:22.549Z,14.87
2017-12-11T15:56:50.317Z,15.45
2017-12-11T15:59:18.218Z,13.82
2017-12-11T16:01:46.071Z,13.43
2017-12-11T16:04:14.525Z,14.30
2017-12-11T16:06:42.791Z,15.52
2017-12-11T16:09:12.444Z,13.50
2017-12-11T16:11:47.511Z,14.52
2017-12-11T16:14:17.146Z,13.18
2017-12-11T16:16:44.876Z,14.30
2017-12-11T16:19:12.956Z,15.50
2017-12-11T16:21:43.552Z,14.38
2017-12-11T16:24:14.300Z,13.75
2017-12-11T16:26:45.099Z,13.15
2017-12-11T16:29:13.667Z,15.45
2017-12-11T16:31:41.317Z,13.55
2017-12-11T16:34:09.118Z,15.07
2017-12-11T16:36:37.194Z,13.45
2017-12-11T16:39:06.706Z,14.10
2017-12-11T16:41:39.469Z,15.57
2017-12-11T16:44:08.757Z,15.50
2017-12-11T16:46:38.994Z,14.35
2017-12-11T16:49:09.836Z,14.13
2017-12-11T16:51:40.547Z,15.05
2017-12-11T16:54:10.355Z,16.50
2017-12-11T16:56:40.084Z,14.05
2017-12-11T16:59:10.805Z,14.35
2017-12-11T17:01:41.045Z,15.05
2017-12-11T17:04:14.242Z,14.07
2017-12-11T18:50:33.409Z,21.40
2017-12-11T19:33:21.556Z,22.80
2017-12-11T19:35:55.329Z,27.60
2017-12-11T20:04:41.231Z,20.17
2017-12-11T20:07:42.089Z,19.42
2017-12-11T20:13:23.571Z,17.70
